createdAt,value
2022-11-05T00:02:24.985Z,8.40
2022-11-05T00:05:10.650Z,8.30
2022-11-05T00:08:01.582Z,8.20
2022-11-05T00:10:31.165Z,8.00
2022-11-05T00:13:18.614Z,8.20
2022-11-05T00:16:04.870Z,8.30
2022-11-05T00:18:32.384Z,8.20
2022-11-05T00:20:59.769Z,8.30
2022-11-05T00:23:46.035Z,8.80
2022-11-05T00:26:13.804Z,8.60
2022-11-05T00:28:43.788Z,8.90
2022-11-05T00:31:13.801Z,8.90
2022-11-05T00:33:42.931Z,8.90
2022-11-05T00:36:11.618Z,9.10
2022-11-05T00:38:39.064Z,9.20
2022-11-05T00:41:06.470Z,9.30
2022-11-05T00:43:52.232Z,9.10
2022-11-05T00:46:19.611Z,8.90
2022-11-05T00:49:05.420Z,9.20
2022-11-05T00:51:33.355Z,9.40
2022-11-05T00:54:00.925Z,9.30
2022-11-05T00:56:28.257Z,8.80
2022-11-05T00:58:56.914Z,8.80
2022-11-05T01:01:24.408Z,8.80
2022-11-05T01:03:52.163Z,8.90
2022-11-05T01:06:19.760Z,8.70
2022-11-05T01:08:47.216Z,8.90
2022-11-05T01:11:37.062Z,9.30
2022-11-05T01:14:08.563Z,9.40
2022-11-05T01:16:36.836Z,9.30
2022-11-05T01:19:05.652Z,8.90
2022-11-05T01:21:33.736Z,8.50
2022-11-05T01:24:01.505Z,8.30
2022-11-05T01:26:29.133Z,8.40
2022-11-05T01:29:01.745Z,8.20
2022-11-05T01:31:29.298Z,8.00
2022-11-05T01:33:56.899Z,7.90
2022-11-05T01:36:24.417Z,8.10
2022-11-05T01:38:51.797Z,8.10
2022-11-05T01:41:19.339Z,7.90
2022-11-05T01:43:57.026Z,7.60
2022-11-05T01:46:36.837Z,7.40
2022-11-05T01:49:15.826Z,7.30
2022-11-05T01:51:45.748Z,7.30
2022-11-05T01:54:16.650Z,7.40
2022-11-05T01:56:51.338Z,7.60
2022-11-05T01:59:25.349Z,7.80
2022-11-05T02:01:54.794Z,7.90
2022-11-05T02:04:31.873Z,7.80
2022-11-05T02:07:00.187Z,7.80
2022-11-05T02:09:36.773Z,7.80
2022-11-05T02:12:04.518Z,7.70
2022-11-05T02:14:31.997Z,7.70
2022-11-05T02:17:16.124Z,7.60
2022-11-05T02:20:02.001Z,8.00
2022-11-05T02:22:38.366Z,8.00
2022-11-05T02:25:30.314Z,8.40
2022-11-05T02:28:28.640Z,8.60
2022-11-05T02:31:01.974Z,9.00
2022-11-05T02:33:38.263Z,9.20
2022-11-05T02:36:09.172Z,9.40
2022-11-05T02:38:39.874Z,9.30
2022-11-05T02:41:34.834Z,9.30
2022-11-05T02:44:28.070Z,9.30
2022-11-05T02:47:06.951Z,9.50
2022-11-05T02:50:03.492Z,9.60
2022-11-05T02:52:56.618Z,9.70
2022-11-05T02:55:29.777Z,9.60
2022-11-05T02:57:59.797Z,9.60
2022-11-05T03:00:43.521Z,9.70
2022-11-05T03:03:29.418Z,9.80
2022-11-05T03:06:27.195Z,9.60
2022-11-05T03:09:12.725Z,9.70
2022-11-05T03:12:14.630Z,9.80
2022-11-05T03:15:07.691Z,10.00
2022-11-05T03:17:35.051Z,10.30
2022-11-05T03:20:39.751Z,10.40
2022-11-05T03:23:30.198Z,10.50
2022-11-05T03:26:23.873Z,10.30
2022-11-05T03:28:56.102Z,10.20
2022-11-05T03:31:24.597Z,10.10
2022-11-05T03:33:55.030Z,10.10
2022-11-05T03:36:28.497Z,10.10
2022-11-05T03:38:57.344Z,10.10
2022-11-05T03:41:26.726Z,10.10
2022-11-05T03:43:58.812Z,10.00
2022-11-05T03:46:31.590Z,10.00
2022-11-05T03:49:03.029Z,9.80
2022-11-05T03:51:46.207Z,9.60
2022-11-05T03:54:14.460Z,9.00
2022-11-05T03:57:02.075Z,9.30
2022-11-05T03:59:32.002Z,9.40
2022-11-05T04:01:59.516Z,9.40
2022-11-05T04:04:27.076Z,9.40
2022-11-05T04:07:13.168Z,9.30
2022-11-05T04:09:58.916Z,9.30
2022-11-05T04:12:44.839Z,9.30
2022-11-05T04:15:12.289Z,9.20
2022-11-05T04:17:39.668Z,9.30
2022-11-05T04:20:25.895Z,9.40
2022-11-05T04:23:20.454Z,9.40
2022-11-05T04:25:48.077Z,9.00
2022-11-05T04:28:15.517Z,8.80
2022-11-05T04:30:44.465Z,8.30
2022-11-05T04:33:14.790Z,8.20
2022-11-05T04:35:49.414Z,8.00
2022-11-05T04:38:18.930Z,7.80
2022-11-05T04:40:48.386Z,8.00
2022-11-05T04:43:19.350Z,8.30
2022-11-05T04:45:46.973Z,8.60
2022-11-05T04:48:14.515Z,8.60
2022-11-05T04:50:41.906Z,8.80
2022-11-05T04:53:09.624Z,8.70
2022-11-05T04:55:37.152Z,8.30
2022-11-05T04:58:04.510Z,7.90
2022-11-05T05:00:31.936Z,7.40
2022-11-05T05:02:59.390Z,7.50
2022-11-05T05:05:26.735Z,7.40
2022-11-05T05:07:54.108Z,7.20
2022-11-05T05:10:21.493Z,7.00
2022-11-05T05:12:48.955Z,7.00
2022-11-05T05:15:16.379Z,7.00
2022-11-05T05:17:43.729Z,6.90
2022-11-05T05:20:29.439Z,6.80
2022-11-05T05:22:56.897Z,6.70
2022-11-05T05:25:24.338Z,6.70
2022-11-05T05:27:51.791Z,6.80
2022-11-05T05:30:19.255Z,6.80
2022-11-05T05:32:46.725Z,6.90
2022-11-05T05:35:14.193Z,7.10
2022-11-05T05:37:41.610Z,7.00
2022-11-05T05:40:09.746Z,7.50
2022-11-05T05:42:41.884Z,7.50
2022-11-05T05:45:11.942Z,7.20
2022-11-05T05:47:39.459Z,7.00
2022-11-05T05:50:07.043Z,6.90
2022-11-05T05:52:34.473Z,6.70
2022-11-05T05:55:01.990Z,6.80
2022-11-05T05:57:29.494Z,6.70
2022-11-05T05:59:57.121Z,6.90
2022-11-05T06:02:24.634Z,7.10
2022-11-05T06:04:52.215Z,7.40
2022-11-05T06:07:19.613Z,7.20
2022-11-05T06:09:47.060Z,7.60
2022-11-05T06:12:14.902Z,7.50
2022-11-05T06:14:42.241Z,7.20
2022-11-05T06:17:09.625Z,7.00
2022-11-05T06:19:36.986Z,6.70
2022-11-05T06:22:04.384Z,6.70
2022-11-05T06:24:31.787Z,6.80
2022-11-05T06:26:59.152Z,6.60
2022-11-05T06:29:26.534Z,6.60
2022-11-05T06:31:54.089Z,6.70
2022-11-05T06:34:21.585Z,6.60
2022-11-05T06:36:49.178Z,6.60
2022-11-05T06:39:16.730Z,6.60
2022-11-05T06:42:12.002Z,6.70
2022-11-05T06:44:32.309Z,6.80
2022-11-05T06:47:00.649Z,6.80
2022-11-05T06:49:28.035Z,7.00
2022-11-05T06:51:55.423Z,7.00
2022-11-05T06:54:22.849Z,7.00
2022-11-05T06:56:50.225Z,7.20
2022-11-05T06:59:17.630Z,7.60
2022-11-05T07:01:45.093Z,7.70
2022-11-05T07:04:12.802Z,7.70
2022-11-05T07:06:40.356Z,8.20
2022-11-05T07:09:07.787Z,8.90
2022-11-05T07:11:35.203Z,9.70
2022-11-05T07:14:02.628Z,10.10
2022-11-05T07:16:29.961Z,10.40
2022-11-05T07:18:57.286Z,10.50
2022-11-05T07:21:24.806Z,10.50
2022-11-05T07:23:52.213Z,10.60
2022-11-05T07:26:19.816Z,10.80
2022-11-05T07:28:47.142Z,11.00
2022-11-05T07:31:14.546Z,11.00
2022-11-05T07:33:41.947Z,11.20
2022-11-05T07:36:10.081Z,11.20
2022-11-05T07:38:37.512Z,11.20
2022-11-05T07:41:04.980Z,11.20
2022-11-05T07:43:32.566Z,11.20
2022-11-05T07:46:00.201Z,11.30
2022-11-05T07:48:27.706Z,11.40
2022-11-05T07:50:55.113Z,11.60
2022-11-05T07:53:22.446Z,11.60
2022-11-05T07:55:50.354Z,11.60
2022-11-05T07:58:17.932Z,11.60
2022-11-05T08:00:45.497Z,11.60
2022-11-05T08:03:18.567Z,11.60
2022-11-05T08:05:47.470Z,11.70
2022-11-05T08:08:18.072Z,11.80
2022-11-05T08:10:46.304Z,11.90
2022-11-05T08:13:14.977Z,11.90
2022-11-05T08:15:43.295Z,12.00
2022-11-05T08:18:16.621Z,12.00
2022-11-05T08:20:45.294Z,12.10
2022-11-05T08:23:13.431Z,12.20
2022-11-05T08:25:42.097Z,12.40
2022-11-05T08:28:12.141Z,12.50
2022-11-05T08:30:40.005Z,12.60
2022-11-05T08:33:10.306Z,13.10
2022-11-05T08:35:39.208Z,13.30
2022-11-05T08:38:08.154Z,13.60
2022-11-05T08:40:36.610Z,13.50
2022-11-05T08:43:06.852Z,13.40
2022-11-05T08:45:38.485Z,13.40
2022-11-05T08:48:16.717Z,13.70
2022-11-05T08:50:46.002Z,13.60
2022-11-05T08:53:14.376Z,13.50
2022-11-05T08:55:42.329Z,13.50
2022-11-05T08:58:15.359Z,13.40
2022-11-05T09:00:45.613Z,13.30
2022-11-05T09:03:13.943Z,13.70
2022-11-05T09:05:42.945Z,14.20
2022-11-05T09:08:13.116Z,14.20
2022-11-05T09:10:41.903Z,14.50
2022-11-05T09:13:14.933Z,14.50
2022-11-05T09:15:44.499Z,14.50
2022-11-05T09:18:14.108Z,14.50
2022-11-05T09:20:41.912Z,14.20
2022-11-05T09:23:11.179Z,14.30
2022-11-05T09:25:38.841Z,14.50
2022-11-05T09:28:08.338Z,14.80
2022-11-05T09:30:39.100Z,14.80
2022-11-05T09:33:06.514Z,14.90
2022-11-05T09:35:33.858Z,14.80
2022-11-05T09:38:01.480Z,14.70
2022-11-05T09:40:32.088Z,14.80
2022-11-05T09:43:00.840Z,14.70
2022-11-05T09:45:30.401Z,14.70
2022-11-05T09:48:09.999Z,14.80
2022-11-05T09:50:43.242Z,14.70
2022-11-05T09:53:14.521Z,14.60
2022-11-05T09:55:50.973Z,14.60
2022-11-05T09:58:18.350Z,14.60
2022-11-05T10:00:51.003Z,14.60
2022-11-05T10:03:24.520Z,14.60
2022-11-05T10:05:54.018Z,14.60
2022-11-05T10:08:29.781Z,14.70
2022-11-05T10:11:05.258Z,14.70
2022-11-05T10:13:47.281Z,14.70
2022-11-05T10:16:22.516Z,14.60
2022-11-05T10:18:58.959Z,14.50
2022-11-05T10:21:51.296Z,14.40
2022-11-05T10:24:20.158Z,14.60
2022-11-05T10:26:51.733Z,14.70
2022-11-05T10:29:32.443Z,14.90
2022-11-05T10:32:03.495Z,14.80
2022-11-05T10:34:34.153Z,14.80
2022-11-05T10:37:01.888Z,14.90
2022-11-05T10:39:31.608Z,15.00
2022-11-05T10:41:58.911Z,15.10
2022-11-05T10:44:44.039Z,15.20
2022-11-05T10:47:17.287Z,15.30
2022-11-05T10:50:10.133Z,15.40
2022-11-05T10:52:59.210Z,15.40
2022-11-05T10:55:38.533Z,15.50
2022-11-05T10:58:11.731Z,15.50
2022-11-05T11:00:39.750Z,15.40
2022-11-05T11:03:44.626Z,15.60
2022-11-05T11:06:24.156Z,15.70
2022-11-05T11:08:53.549Z,15.60
2022-11-05T11:11:37.007Z,15.50
2022-11-05T11:14:19.646Z,15.60
2022-11-05T11:16:51.181Z,15.60
2022-11-05T11:19:31.189Z,15.60
2022-11-05T11:22:04.464Z,15.70
2022-11-05T11:24:38.895Z,15.80
2022-11-05T11:27:11.095Z,15.90
2022-11-05T11:29:46.568Z,15.90
2022-11-05T11:32:20.510Z,16.00
2022-11-05T11:34:52.469Z,16.10
2022-11-05T11:37:27.864Z,16.10
2022-11-05T11:39:58.941Z,16.20
2022-11-05T11:42:35.475Z,16.10
2022-11-05T11:45:15.830Z,16.50
2022-11-05T11:47:45.991Z,16.50
2022-11-05T11:50:31.798Z,16.30
2022-11-05T11:53:20.944Z,16.30
2022-11-05T11:56:17.860Z,16.30
2022-11-05T11:58:51.107Z,16.30
2022-11-05T12:01:39.625Z,16.50
2022-11-05T12:04:13.281Z,16.50
2022-11-05T12:06:57.418Z,16.50
2022-11-05T12:09:36.667Z,16.50
2022-11-05T12:12:14.044Z,16.60
2022-11-05T12:14:47.615Z,16.60
2022-11-05T12:17:35.317Z,16.70
2022-11-05T12:20:26.269Z,16.70
2022-11-05T12:22:56.875Z,16.70
2022-11-05T12:25:42.872Z,16.70
2022-11-05T12:28:36.231Z,17.20
2022-11-05T12:31:32.601Z,17.20
2022-11-05T12:34:30.013Z,17.20
2022-11-05T12:37:23.415Z,17.50
2022-11-05T12:40:28.738Z,17.20
2022-11-05T12:43:12.019Z,17.10
2022-11-05T12:45:59.216Z,17.20
2022-11-05T12:48:46.947Z,17.40
2022-11-05T12:51:26.053Z,17.20
2022-11-05T12:53:57.688Z,17.20
2022-11-05T12:56:36.985Z,17.10
2022-11-05T12:59:39.218Z,17.00
2022-11-05T13:02:49.896Z,17.00
2022-11-05T13:05:28.698Z,16.80
2022-11-05T13:08:02.135Z,16.90
2022-11-05T13:10:45.692Z,17.00
2022-11-05T13:13:25.223Z,16.90
2022-11-05T13:16:15.845Z,16.90
2022-11-05T13:18:49.075Z,16.90
2022-11-05T13:21:19.093Z,17.00
2022-11-05T13:24:12.629Z,16.90
2022-11-05T13:26:54.993Z,17.10
2022-11-05T13:29:42.278Z,17.00
2022-11-05T13:32:29.196Z,16.90
2022-11-05T13:35:01.984Z,17.40
2022-11-05T13:37:54.300Z,17.30
2022-11-05T13:40:28.908Z,17.10
2022-11-05T13:43:17.189Z,17.20
2022-11-05T13:46:05.428Z,17.00
2022-11-05T13:49:06.883Z,16.90
2022-11-05T13:51:39.390Z,17.00
2022-11-05T13:54:25.839Z,17.10
2022-11-05T13:57:17.786Z,17.10
2022-11-05T13:59:57.011Z,16.90
2022-11-05T14:02:29.023Z,16.90
2022-11-05T14:05:01.287Z,17.00
2022-11-05T14:07:32.372Z,17.00
2022-11-05T14:10:23.056Z,17.10
2022-11-05T14:12:52.974Z,17.10
2022-11-05T14:15:26.444Z,17.10
2022-11-05T14:18:03.775Z,17.00
2022-11-05T14:20:31.116Z,16.90
2022-11-05T14:23:23.173Z,16.90
2022-11-05T14:25:55.044Z,16.90
2022-11-05T14:28:36.445Z,16.80
2022-11-05T14:31:40.986Z,16.80
2022-11-05T14:34:12.414Z,16.90
2022-11-05T14:36:42.096Z,16.80
2022-11-05T14:39:26.264Z,16.80
2022-11-05T14:41:53.680Z,16.70
2022-11-05T14:44:21.412Z,16.70
2022-11-05T14:46:52.041Z,16.70
2022-11-05T14:49:30.171Z,16.90
2022-11-05T14:52:10.736Z,16.90
2022-11-05T14:54:50.418Z,16.80
2022-11-05T14:58:04.342Z,16.90
2022-11-05T15:00:32.469Z,17.00
2022-11-05T15:03:24.782Z,16.90
2022-11-05T15:06:02.885Z,16.70
2022-11-05T15:08:32.387Z,16.50
2022-11-05T15:11:11.463Z,16.30
2022-11-05T15:13:49.652Z,16.30
2022-11-05T15:16:24.866Z,16.20
2022-11-05T15:18:54.466Z,16.20
2022-11-05T15:21:22.676Z,16.00
2022-11-05T15:23:54.398Z,16.10
2022-11-05T15:26:36.855Z,16.00
2022-11-05T15:29:14.482Z,16.00
2022-11-05T15:31:45.366Z,15.90
2022-11-05T15:34:28.674Z,15.80
2022-11-05T15:37:12.676Z,15.80
2022-11-05T15:39:45.507Z,15.80
2022-11-05T15:42:25.375Z,15.70
2022-11-05T15:44:55.666Z,15.50
2022-11-05T15:47:24.293Z,15.40
2022-11-05T15:50:02.681Z,15.30
2022-11-05T15:52:51.868Z,15.20
2022-11-05T15:55:23.747Z,15.00
2022-11-05T15:58:01.112Z,14.90
2022-11-05T16:00:31.316Z,14.80
2022-11-05T16:03:04.598Z,14.90
2022-11-05T16:05:35.531Z,14.90
2022-11-05T16:08:05.459Z,15.00
2022-11-05T16:10:38.755Z,14.90
2022-11-05T16:13:32.575Z,14.90
2022-11-05T16:16:24.942Z,14.80
2022-11-05T16:18:52.812Z,14.70
2022-11-05T16:21:23.225Z,14.60
2022-11-05T16:23:58.733Z,14.60
2022-11-05T16:29:40.329Z,14.70
2022-11-05T16:32:18.248Z,14.60
2022-11-05T16:35:09.998Z,14.50
2022-11-05T16:37:40.075Z,14.40
2022-11-05T16:40:25.505Z,14.40
2022-11-05T16:42:54.298Z,14.40
2022-11-05T16:45:24.699Z,14.30
2022-11-05T16:47:52.593Z,14.20
2022-11-05T16:50:24.047Z,14.20
2022-11-05T16:52:51.780Z,14.20
2022-11-05T16:55:19.689Z,14.20
2022-11-05T16:57:51.736Z,14.20
2022-11-05T17:00:21.470Z,14.10
2022-11-05T17:02:49.440Z,14.00
2022-11-05T17:05:24.114Z,13.90
2022-11-05T17:07:52.036Z,13.90
2022-11-05T17:10:20.906Z,13.80
2022-11-05T17:12:49.320Z,13.80
2022-11-05T17:15:31.236Z,13.70
2022-11-05T17:17:59.464Z,13.80
2022-11-05T17:20:40.383Z,13.80
2022-11-05T17:23:16.944Z,13.80
2022-11-05T17:25:47.560Z,13.70
2022-11-05T17:28:16.464Z,13.70
2022-11-05T17:30:51.698Z,13.70
2022-11-05T17:33:21.778Z,13.70
2022-11-05T17:35:49.400Z,13.70
2022-11-05T17:38:16.915Z,13.60
2022-11-05T17:40:44.344Z,13.60
2022-11-05T17:43:12.193Z,13.60
2022-11-05T17:45:49.053Z,13.50
2022-11-05T17:48:16.831Z,13.40
2022-11-05T17:50:47.749Z,13.40
2022-11-05T17:53:17.843Z,13.40
2022-11-05T17:55:46.861Z,13.30
2022-11-05T17:58:14.814Z,13.30
2022-11-05T18:00:43.418Z,13.20
2022-11-05T18:03:12.362Z,13.00
2022-11-05T18:05:40.595Z,12.90
2022-11-05T18:08:09.171Z,13.00
2022-11-05T18:10:37.809Z,13.00
2022-11-05T18:13:05.834Z,12.90
2022-11-05T18:15:35.461Z,12.90
2022-11-05T18:18:03.177Z,12.80
2022-11-05T18:20:30.733Z,12.60
2022-11-05T18:22:58.326Z,11.80
2022-11-05T18:25:25.907Z,11.50
2022-11-05T18:27:53.275Z,11.70
2022-11-05T18:30:20.642Z,11.90
2022-11-05T18:32:48.319Z,11.90
2022-11-05T18:35:15.812Z,11.70
2022-11-05T18:37:43.384Z,11.20
2022-11-05T18:40:11.782Z,10.90
2022-11-05T18:42:39.239Z,11.50
2022-11-05T18:45:08.074Z,11.60
2022-11-05T18:47:35.592Z,11.60
2022-11-05T18:50:04.358Z,11.70
2022-11-05T18:52:31.930Z,11.50
2022-11-05T18:54:59.873Z,10.90
2022-11-05T18:57:28.499Z,10.50
2022-11-05T18:59:55.897Z,10.10
2022-11-05T19:02:23.366Z,9.90
2022-11-05T19:05:21.984Z,10.10
2022-11-05T19:07:39.051Z,10.40
2022-11-05T19:10:07.320Z,10.10
2022-11-05T19:12:34.660Z,10.00
2022-11-05T19:15:03.027Z,9.70
2022-11-05T19:17:32.662Z,9.50
2022-11-05T19:20:00.425Z,9.40
2022-11-05T19:22:28.138Z,9.50
2022-11-05T19:24:55.530Z,9.70
2022-11-05T19:27:23.349Z,9.60
2022-11-05T19:29:50.766Z,9.60
2022-11-05T19:32:18.344Z,9.60
2022-11-05T19:34:46.915Z,9.60
2022-11-05T19:37:14.268Z,9.60
2022-11-05T19:39:41.807Z,9.50
2022-11-05T19:42:09.279Z,9.30
2022-11-05T19:44:36.694Z,9.20
2022-11-05T19:47:04.186Z,9.10
2022-11-05T19:49:31.601Z,9.00
2022-11-05T19:51:59.085Z,9.00
2022-11-05T19:54:26.460Z,8.80
2022-11-05T19:56:53.953Z,8.80
2022-11-05T19:59:21.342Z,8.60
2022-11-05T20:01:48.879Z,8.60
2022-11-05T20:04:16.649Z,8.60
2022-11-05T20:06:44.081Z,8.60
2022-11-05T20:09:21.754Z,8.50
2022-11-05T20:11:51.124Z,8.80
2022-11-05T20:14:18.529Z,8.80
2022-11-05T20:16:46.745Z,8.60
2022-11-05T20:19:17.059Z,9.00
2022-11-05T20:21:45.505Z,9.50
2022-11-05T20:24:22.102Z,9.80
2022-11-05T20:26:51.690Z,9.80
2022-11-05T20:29:19.096Z,9.50
2022-11-05T20:31:46.686Z,9.70
2022-11-05T20:34:14.108Z,9.30
2022-11-05T20:36:41.607Z,9.10
2022-11-05T20:39:10.457Z,9.00
2022-11-05T20:41:38.106Z,9.00
2022-11-05T20:44:05.548Z,8.80
2022-11-05T20:46:33.928Z,8.70
2022-11-05T20:49:01.310Z,8.40
2022-11-05T20:51:28.682Z,8.30
2022-11-05T20:53:58.449Z,8.10
2022-11-05T20:56:31.580Z,8.20
2022-11-05T20:59:00.394Z,8.30
2022-11-05T21:01:33.254Z,8.30
2022-11-05T21:04:00.831Z,8.60
2022-11-05T21:06:28.248Z,8.80
2022-11-05T21:08:56.075Z,8.80
2022-11-05T21:11:23.735Z,8.80
2022-11-05T21:13:51.271Z,9.20
2022-11-05T21:16:19.812Z,9.00
2022-11-05T21:18:47.843Z,8.80
2022-11-05T21:21:18.483Z,8.40
2022-11-05T21:23:46.207Z,8.10
2022-11-05T21:26:15.251Z,8.10
2022-11-05T21:28:42.750Z,8.30
2022-11-05T21:31:10.825Z,8.60
2022-11-05T21:33:38.243Z,9.00
2022-11-05T21:36:11.045Z,8.90
2022-11-05T21:38:38.896Z,8.80
2022-11-05T21:41:07.643Z,8.50
2022-11-05T21:43:35.434Z,8.20
2022-11-05T21:46:04.592Z,8.00
2022-11-05T21:48:32.260Z,7.90
2022-11-05T21:51:18.684Z,7.80
2022-11-05T21:54:04.583Z,7.70
2022-11-05T21:56:50.989Z,7.60
2022-11-05T21:59:39.884Z,7.50
2022-11-05T22:02:08.766Z,7.50
2022-11-05T22:04:42.161Z,7.50
2022-11-05T22:07:11.548Z,7.40
2022-11-05T22:09:39.443Z,7.30
2022-11-05T22:12:07.263Z,7.30
2022-11-05T22:14:35.176Z,7.20
2022-11-05T22:17:03.187Z,7.30
2022-11-05T22:19:30.980Z,7.10
2022-11-05T22:21:58.468Z,7.20
2022-11-05T22:24:28.027Z,7.30
2022-11-05T22:26:55.717Z,7.30
2022-11-05T22:29:23.148Z,7.20
2022-11-05T22:31:50.583Z,7.20
2022-11-05T22:34:18.428Z,7.40
2022-11-05T22:36:46.836Z,7.80
2022-11-05T22:39:14.642Z,7.90
2022-11-05T22:41:43.062Z,7.80
2022-11-05T22:44:10.983Z,7.90
2022-11-05T22:46:38.903Z,8.00
2022-11-05T22:49:07.229Z,8.10
2022-11-05T22:51:36.850Z,8.20
2022-11-05T22:54:05.286Z,8.30
2022-11-05T22:56:35.448Z,8.10
2022-11-05T22:59:04.033Z,7.90
2022-11-05T23:01:31.551Z,7.70
2022-11-05T23:03:59.473Z,7.60
2022-11-05T23:06:50.391Z,7.50
2022-11-05T23:09:41.244Z,7.30
2022-11-05T23:12:21.353Z,7.20
2022-11-05T23:14:49.118Z,7.10
2022-11-05T23:17:35.224Z,7.10
2022-11-05T23:20:21.470Z,7.00
2022-11-05T23:23:07.397Z,7.00
2022-11-05T23:25:35.063Z,7.00
2022-11-05T23:28:07.124Z,6.80
2022-11-05T23:30:34.549Z,6.90
2022-11-05T23:33:02.200Z,7.00
2022-11-05T23:35:47.899Z,7.10
2022-11-05T23:38:34.253Z,7.10
2022-11-05T23:41:21.179Z,7.00
2022-11-05T23:44:07.680Z,7.10
2022-11-05T23:46:54.513Z,7.50
2022-11-05T23:49:22.278Z,7.60
2022-11-05T23:51:50.016Z,7.60
2022-11-05T23:54:17.407Z,7.80
2022-11-05T23:56:44.848Z,7.80
2022-11-05T23:59:12.201Z,7.60
